createdAt,value
2017-04-21T00:00:49.725Z,51.12
2017-04-21T00:01:44.234Z,51.18
2017-04-21T00:02:43.812Z,51.19
2017-04-21T00:03:50.129Z,51.20
2017-04-21T00:04:56.194Z,51.19
2017-04-21T00:05:55.031Z,51.18
2017-04-21T00:07:01.933Z,51.20
2017-04-21T00:07:55.994Z,51.22
2017-04-21T00:08:44.980Z,51.24
2017-04-21T00:09:45.147Z,51.24
2017-04-21T00:10:49.689Z,51.27
2017-04-21T00:11:53.513Z,51.25
2017-04-21T00:13:06.932Z,51.31
2017-04-21T00:13:46.755Z,51.34
2017-04-21T00:14:44.789Z,51.29
2017-04-21T00:15:54.570Z,51.33
2017-04-21T00:16:55.755Z,50.51
2017-04-21T00:17:56.242Z,50.39
2017-04-21T00:19:00.331Z,51.18
2017-04-21T00:19:50.161Z,51.33
2017-04-21T00:20:55.774Z,51.48
2017-04-21T00:21:51.017Z,51.51
2017-04-21T00:22:49.227Z,51.61
2017-04-21T00:24:03.923Z,51.71
2017-04-21T00:25:03.683Z,51.72
2017-04-21T00:25:43.054Z,51.72
2017-04-21T00:26:44.727Z,51.67
2017-04-21T00:27:56.892Z,51.61
2017-04-21T00:28:55.125Z,51.69
2017-04-21T00:29:59.464Z,51.75
2017-04-21T00:30:43.315Z,51.94
2017-04-21T00:31:55.923Z,51.83
2017-04-21T00:33:00.176Z,51.97
2017-04-21T00:34:03.144Z,52.04
2017-04-21T00:34:45.200Z,52.00
2017-04-21T00:35:48.849Z,51.97
2017-04-21T00:36:44.181Z,52.02
2017-04-21T00:37:45.581Z,51.83
2017-04-21T00:38:46.241Z,51.96
2017-04-21T00:39:50.192Z,52.07
2017-04-21T00:40:50.701Z,52.04
2017-04-21T00:41:56.205Z,51.98
2017-04-21T00:42:51.557Z,52.07
2017-04-21T00:43:46.690Z,52.01
2017-04-21T00:44:50.480Z,51.98
2017-04-21T00:45:50.881Z,52.06
2017-04-21T00:46:55.287Z,51.93
2017-04-21T00:47:51.971Z,52.03
2017-04-21T00:49:08.509Z,52.07
2017-04-21T00:49:46.848Z,52.08
2017-04-21T00:51:07.512Z,52.08
2017-04-21T00:51:57.161Z,52.14
2017-04-21T00:52:50.128Z,52.08
2017-04-21T00:53:50.925Z,52.05
2017-04-21T00:54:48.833Z,52.05
2017-04-21T00:55:55.920Z,52.14
2017-04-21T00:56:59.820Z,52.13
2017-04-21T00:58:01.161Z,51.98
2017-04-21T00:58:50.186Z,51.31
2017-04-21T01:00:00.063Z,51.10
2017-04-21T01:00:50.458Z,50.99
2017-04-21T01:01:55.260Z,51.04
2017-04-21T01:02:58.713Z,50.99
2017-04-21T01:04:00.830Z,51.71
2017-04-21T01:05:18.542Z,51.91
2017-04-21T01:05:56.534Z,52.05
2017-04-21T01:06:59.385Z,51.98
2017-04-21T01:08:04.307Z,51.92
2017-04-21T01:09:02.240Z,51.26
2017-04-21T01:10:09.200Z,51.18
2017-04-21T01:11:06.111Z,51.90
2017-04-21T01:12:04.037Z,51.96
2017-04-21T01:12:48.203Z,52.00
2017-04-21T01:15:17.400Z,52.08
2017-04-21T01:15:55.836Z,51.94
2017-04-21T01:16:51.149Z,51.29
2017-04-21T01:17:52.708Z,51.08
2017-04-21T01:19:00.003Z,51.05
2017-04-21T01:20:03.604Z,50.94
2017-04-21T01:20:58.685Z,50.93
2017-04-21T01:22:04.997Z,50.75
2017-04-21T01:22:53.824Z,50.86
2017-04-21T01:24:06.170Z,50.87
2017-04-21T01:25:00.160Z,50.96
2017-04-21T01:25:44.639Z,51.03
2017-04-21T01:26:51.360Z,51.71
2017-04-21T01:27:50.232Z,52.00
2017-04-21T01:28:55.446Z,51.98
2017-04-21T01:29:55.723Z,52.10
2017-04-21T01:30:48.815Z,52.13
2017-04-21T01:32:00.744Z,52.13
2017-04-21T01:32:59.280Z,52.20
2017-04-21T01:33:59.283Z,52.24
2017-04-21T01:34:50.875Z,52.07
2017-04-21T01:35:59.450Z,51.61
2017-04-21T01:36:50.495Z,52.12
2017-04-21T01:37:55.245Z,52.17
2017-04-21T01:38:55.752Z,52.20
2017-04-21T01:39:56.429Z,52.30
2017-04-21T01:40:51.553Z,52.21
2017-04-21T01:41:59.285Z,52.29
2017-04-21T01:42:49.948Z,52.28
2017-04-21T01:43:57.618Z,52.31
2017-04-21T01:44:56.351Z,52.14
2017-04-21T01:46:04.634Z,52.17
2017-04-21T01:46:58.051Z,52.33
2017-04-21T01:47:55.228Z,52.27
2017-04-21T01:48:50.458Z,52.27
2017-04-21T01:50:07.626Z,52.30
2017-04-21T01:50:48.582Z,52.26
2017-04-21T01:51:54.779Z,52.31
2017-04-21T01:52:45.506Z,52.25
2017-04-21T01:53:50.088Z,52.29
2017-04-21T01:54:50.506Z,52.27
2017-04-21T01:55:46.532Z,52.27
2017-04-21T01:56:56.901Z,52.24
2017-04-21T01:58:03.464Z,52.19
2017-04-21T01:59:03.449Z,52.32
2017-04-21T02:00:02.297Z,52.29
2017-04-21T02:00:55.415Z,52.25
2017-04-21T02:01:44.540Z,52.34
2017-04-21T02:02:53.934Z,51.59
2017-04-21T02:03:44.838Z,51.34
2017-04-21T02:04:44.474Z,51.32
2017-04-21T02:05:49.204Z,51.53
2017-04-21T02:06:50.655Z,52.04
2017-04-21T02:07:45.361Z,52.18
2017-04-21T02:08:50.247Z,52.27
2017-04-21T02:09:51.299Z,51.57
2017-04-21T02:10:44.995Z,51.43
2017-04-21T02:11:48.748Z,51.34
2017-04-21T02:12:49.603Z,51.22
2017-04-21T02:13:50.937Z,51.19
2017-04-21T02:14:49.288Z,51.23
2017-04-21T02:16:13.382Z,51.17
2017-04-21T02:17:03.791Z,51.14
2017-04-21T02:17:42.959Z,51.35
2017-04-21T02:19:02.600Z,52.07
2017-04-21T02:19:56.240Z,52.22
2017-04-21T02:20:53.692Z,52.23
2017-04-21T02:21:51.092Z,52.24
2017-04-21T02:22:50.193Z,52.30
2017-04-21T02:23:54.700Z,52.41
2017-04-21T02:24:50.748Z,52.36
2017-04-21T02:25:55.795Z,52.43
2017-04-21T02:26:48.710Z,52.44
2017-04-21T02:27:59.519Z,52.46
2017-04-21T02:28:50.245Z,52.45
2017-04-21T02:29:50.254Z,52.35
2017-04-21T02:30:50.837Z,52.38
2017-04-21T02:31:50.958Z,52.44
2017-04-21T02:32:46.354Z,52.45
2017-04-21T02:33:55.644Z,52.45
2017-04-21T02:34:56.309Z,52.47
2017-04-21T02:35:44.100Z,52.45
2017-04-21T02:36:44.702Z,52.45
2017-04-21T02:37:50.654Z,51.85
2017-04-21T02:38:46.370Z,52.40
2017-04-21T02:39:46.287Z,52.40
2017-04-21T02:40:50.299Z,52.38
2017-04-21T02:42:00.823Z,52.42
2017-04-21T02:42:53.895Z,52.50
2017-04-21T02:43:51.274Z,52.54
2017-04-21T02:44:54.990Z,52.50
2017-04-21T02:45:44.757Z,52.53
2017-04-21T02:46:49.216Z,52.56
2017-04-21T02:47:54.824Z,52.48
2017-04-21T02:49:04.933Z,52.48
2017-04-21T02:49:53.997Z,52.37
2017-04-21T02:50:59.820Z,52.57
2017-04-21T02:51:46.739Z,52.56
2017-04-21T02:52:51.326Z,52.52
2017-04-21T02:53:54.658Z,52.50
2017-04-21T02:55:01.000Z,52.49
2017-04-21T02:55:54.925Z,52.53
2017-04-21T02:56:50.460Z,52.52
2017-04-21T02:57:45.819Z,52.53
2017-04-21T02:58:54.583Z,52.53
2017-04-21T02:59:50.206Z,52.57
2017-04-21T03:00:54.523Z,52.50
2017-04-21T03:02:01.101Z,52.53
2017-04-21T03:02:50.005Z,51.98
2017-04-21T03:03:50.721Z,52.33
2017-04-21T03:04:51.648Z,52.44
2017-04-21T03:05:51.285Z,52.51
2017-04-21T03:06:57.220Z,52.55
2017-04-21T03:07:50.093Z,52.52
2017-04-21T03:08:44.324Z,52.58
2017-04-21T03:09:44.455Z,52.55
2017-04-21T03:10:45.794Z,52.48
2017-04-21T03:11:51.156Z,52.57
2017-04-21T03:13:00.504Z,52.64
2017-04-21T03:13:44.730Z,52.64
2017-04-21T03:14:45.370Z,52.59
2017-04-21T03:15:48.517Z,52.66
2017-04-21T03:16:51.176Z,52.66
2017-04-21T03:17:49.545Z,52.60
2017-04-21T03:18:58.632Z,52.64
2017-04-21T03:19:48.787Z,52.53
2017-04-21T03:20:50.265Z,52.54
2017-04-21T03:21:45.820Z,52.58
2017-04-21T03:22:44.963Z,52.57
2017-04-21T03:23:45.810Z,52.57
2017-04-21T03:24:51.669Z,52.60
2017-04-21T03:25:50.746Z,52.56
2017-04-21T03:26:51.056Z,52.60
2017-04-21T03:28:04.190Z,52.55
2017-04-21T03:28:45.158Z,52.65
2017-04-21T03:29:55.487Z,51.84
2017-04-21T03:31:06.114Z,51.64
2017-04-21T03:31:50.200Z,51.78
2017-04-21T03:32:50.713Z,52.35
2017-04-21T03:33:56.353Z,52.51
2017-04-21T03:34:55.626Z,52.57
2017-04-21T03:35:51.308Z,52.66
2017-04-21T03:36:45.307Z,52.56
2017-04-21T03:37:51.004Z,52.63
2017-04-21T03:39:18.405Z,52.70
2017-04-21T03:39:57.182Z,52.68
2017-04-21T03:40:44.290Z,52.68
2017-04-21T03:41:49.647Z,52.69
2017-04-21T03:42:59.512Z,52.75
2017-04-21T03:43:50.393Z,52.80
2017-04-21T03:45:06.633Z,52.80
2017-04-21T03:45:51.267Z,52.76
2017-04-21T03:46:46.369Z,52.78
2017-04-21T03:47:45.185Z,52.87
2017-04-21T03:48:50.678Z,52.87
2017-04-21T03:49:45.832Z,52.92
2017-04-21T03:50:55.219Z,52.79
2017-04-21T03:51:53.073Z,52.86
2017-04-21T03:52:44.222Z,52.96
2017-04-21T03:53:50.154Z,53.00
2017-04-21T03:54:46.424Z,52.89
2017-04-21T03:55:55.875Z,52.98
2017-04-21T03:56:56.502Z,53.04
2017-04-21T03:57:49.655Z,53.01
2017-04-21T03:58:51.435Z,52.95
2017-04-21T03:59:51.506Z,52.98
2017-04-21T04:00:45.914Z,53.01
2017-04-21T04:01:44.997Z,52.97
2017-04-21T04:02:48.194Z,52.21
2017-04-21T04:03:49.983Z,52.13
2017-04-21T04:04:44.982Z,52.05
2017-04-21T04:05:45.108Z,52.00
2017-04-21T04:07:00.553Z,52.02
2017-04-21T04:07:54.783Z,52.16
2017-04-21T04:08:51.512Z,52.76
2017-04-21T04:09:50.455Z,52.89
2017-04-21T04:10:46.190Z,53.06
2017-04-21T04:11:54.401Z,53.07
2017-04-21T04:12:50.570Z,53.07
2017-04-21T04:13:55.892Z,53.15
2017-04-21T04:14:44.289Z,53.03
2017-04-21T04:15:44.654Z,53.03
2017-04-21T04:16:46.188Z,53.06
2017-04-21T04:17:57.139Z,53.13
2017-04-21T04:18:47.499Z,53.15
2017-04-21T04:19:46.853Z,53.14
2017-04-21T04:20:46.532Z,53.05
2017-04-21T04:21:51.552Z,53.09
2017-04-21T04:22:50.650Z,53.10
2017-04-21T04:23:56.074Z,53.12
2017-04-21T04:24:55.667Z,53.15
2017-04-21T04:27:27.287Z,53.16
2017-04-21T04:28:04.177Z,53.13
2017-04-21T04:28:56.034Z,53.10
2017-04-21T04:29:59.799Z,53.19
2017-04-21T04:30:50.178Z,53.15
2017-04-21T04:31:58.674Z,53.21
2017-04-21T04:32:46.609Z,53.20
2017-04-21T04:33:44.446Z,53.13
2017-04-21T04:34:50.467Z,53.00
2017-04-21T04:35:54.844Z,52.28
2017-04-21T04:36:44.208Z,52.17
2017-04-21T04:37:55.535Z,52.11
2017-04-21T04:38:51.082Z,52.08
2017-04-21T04:39:51.221Z,52.89
2017-04-21T04:40:55.308Z,52.99
2017-04-21T04:41:54.125Z,53.06
2017-04-21T04:42:50.806Z,53.09
2017-04-21T04:44:03.612Z,53.13
2017-04-21T04:44:42.577Z,53.11
2017-04-21T04:45:54.420Z,53.18
2017-04-21T04:46:44.591Z,53.14
2017-04-21T04:47:54.026Z,53.27
2017-04-21T04:49:03.011Z,53.18
2017-04-21T04:49:53.358Z,53.17
2017-04-21T04:50:56.213Z,53.05
2017-04-21T04:51:50.821Z,52.36
2017-04-21T04:52:46.403Z,52.26
2017-04-21T04:53:45.893Z,52.10
2017-04-21T04:54:55.395Z,52.22
2017-04-21T04:55:51.540Z,52.91
2017-04-21T04:56:51.442Z,53.04
2017-04-21T04:57:47.630Z,53.07
2017-04-21T04:58:50.169Z,53.32
2017-04-21T04:59:54.950Z,53.32
2017-04-21T05:00:50.528Z,53.30
2017-04-21T05:01:43.329Z,53.25
2017-04-21T05:02:49.247Z,53.35
2017-04-21T05:03:49.587Z,53.31
2017-04-21T05:04:39.626Z,53.25
2017-04-21T05:05:45.235Z,53.19
2017-04-21T05:06:47.647Z,53.23
2017-04-21T05:07:49.651Z,53.24
2017-04-21T05:08:38.525Z,52.45
2017-04-21T05:09:43.658Z,52.22
2017-04-21T05:10:48.504Z,51.98
2017-04-21T05:11:45.392Z,52.07
2017-04-21T05:12:43.679Z,52.06
2017-04-21T05:13:40.476Z,52.06
2017-04-21T05:14:50.846Z,52.04
2017-04-21T05:15:45.395Z,52.09
2017-04-21T05:16:41.914Z,53.00
2017-04-21T05:17:54.565Z,53.06
2017-04-21T05:18:45.294Z,53.12
2017-04-21T05:19:49.506Z,53.15
2017-04-21T05:20:48.669Z,53.10
2017-04-21T05:21:42.650Z,53.15
2017-04-21T05:22:44.175Z,53.11
2017-04-21T05:23:44.427Z,53.06
2017-04-21T05:24:44.035Z,53.06
2017-04-21T05:25:50.589Z,53.02
2017-04-21T05:26:44.793Z,53.11
2017-04-21T05:27:58.247Z,53.18
2017-04-21T05:28:44.340Z,53.22
2017-04-21T05:29:44.190Z,53.16
2017-04-21T05:30:59.123Z,53.08
2017-04-21T05:31:44.006Z,53.04
2017-04-21T05:32:49.468Z,53.08
2017-04-21T05:33:45.416Z,53.02
2017-04-21T05:34:54.665Z,52.97
2017-04-21T05:35:34.805Z,52.93
2017-04-21T05:36:45.343Z,52.96
2017-04-21T05:37:48.514Z,52.94
2017-04-21T05:38:44.920Z,53.06
2017-04-21T05:39:30.874Z,53.01
2017-04-21T05:40:31.695Z,53.15
2017-04-21T05:41:41.743Z,53.09
2017-04-21T05:42:45.974Z,53.07
2017-04-21T05:43:45.111Z,53.05
2017-04-21T05:44:48.769Z,53.14
2017-04-21T05:45:45.420Z,53.19
2017-04-21T05:46:49.313Z,53.03
2017-04-21T05:47:38.721Z,53.16
2017-04-21T05:48:39.554Z,53.26
2017-04-21T05:49:41.463Z,53.24
2017-04-21T05:50:49.394Z,53.27
2017-04-21T05:51:42.829Z,53.14
2017-04-21T05:52:40.505Z,53.11
2017-04-21T05:53:35.209Z,53.16
2017-04-21T05:54:57.464Z,53.25
2017-04-21T05:55:54.331Z,53.31
2017-04-21T05:56:55.701Z,53.35
2017-04-21T05:57:49.767Z,53.28
2017-04-21T05:58:46.346Z,53.33
2017-04-21T05:59:50.873Z,53.32
2017-04-21T06:00:56.125Z,53.28
2017-04-21T06:02:03.583Z,53.19
2017-04-21T06:02:48.444Z,53.24
2017-04-21T06:03:48.233Z,53.22
2017-04-21T06:04:55.174Z,53.23
2017-04-21T06:05:50.139Z,53.24
2017-04-21T06:06:55.249Z,53.19
2017-04-21T06:07:51.310Z,37.48
2017-04-21T06:08:55.408Z,33.10
2017-04-21T06:09:50.527Z,30.53
2017-04-21T06:10:51.051Z,29.45
2017-04-21T06:11:50.412Z,30.66
2017-04-21T06:12:43.121Z,29.90
2017-04-21T06:13:44.292Z,29.53
2017-04-21T06:14:49.521Z,30.01
2017-04-21T06:15:48.646Z,30.61
2017-04-21T06:16:50.172Z,30.71
2017-04-21T06:17:51.048Z,30.78
2017-04-21T06:18:55.870Z,29.38
2017-04-21T06:19:55.238Z,30.91
2017-04-21T06:20:50.521Z,32.87
2017-04-21T06:21:57.221Z,34.68
2017-04-21T06:22:54.468Z,35.81
2017-04-21T06:23:43.898Z,36.76
2017-04-21T06:24:43.583Z,37.88
2017-04-21T06:25:49.425Z,38.64
2017-04-21T06:26:49.809Z,37.19
2017-04-21T06:27:46.051Z,38.00
2017-04-21T06:28:55.003Z,38.24
2017-04-21T06:29:55.267Z,37.67
2017-04-21T06:30:51.375Z,38.42
2017-04-21T06:31:50.910Z,38.21
2017-04-21T06:32:51.216Z,38.37
2017-04-21T06:33:45.812Z,37.90
2017-04-21T06:34:52.025Z,38.87
2017-04-21T06:35:43.607Z,38.96
2017-04-21T06:36:44.508Z,38.89
2017-04-21T06:37:50.537Z,39.14
2017-04-21T06:38:55.029Z,39.16
2017-04-21T06:39:50.427Z,39.26
2017-04-21T06:40:58.844Z,39.60
2017-04-21T06:41:48.688Z,39.58
2017-04-21T06:42:59.368Z,39.75
2017-04-21T06:43:50.588Z,39.97
2017-04-21T06:44:49.767Z,39.88
2017-04-21T06:45:44.413Z,40.12
2017-04-21T06:47:06.839Z,40.29
2017-04-21T06:47:55.725Z,40.45
2017-04-21T06:48:55.845Z,40.63
2017-04-21T06:49:49.726Z,40.82
2017-04-21T06:50:46.773Z,40.90
2017-04-21T06:51:55.426Z,41.06
2017-04-21T06:52:55.534Z,41.15
2017-04-21T06:53:46.446Z,41.26
2017-04-21T06:54:51.002Z,41.29
2017-04-21T06:55:50.558Z,41.41
2017-04-21T06:56:50.385Z,41.61
2017-04-21T06:57:56.878Z,41.64
2017-04-21T06:58:51.578Z,41.71
2017-04-21T06:59:49.272Z,41.80
2017-04-21T07:01:07.748Z,41.89
2017-04-21T07:01:49.002Z,42.00
2017-04-21T07:02:48.770Z,42.09
2017-04-21T07:03:51.192Z,42.14
2017-04-21T07:04:49.778Z,42.25
2017-04-21T07:05:41.343Z,42.30
2017-04-21T07:06:45.737Z,42.30
2017-04-21T07:07:45.866Z,42.46
2017-04-21T07:08:58.482Z,42.55
2017-04-21T07:09:49.457Z,42.61
2017-04-21T07:10:58.772Z,42.69
2017-04-21T07:11:50.190Z,42.81
2017-04-21T07:12:45.775Z,42.97
2017-04-21T07:13:52.776Z,43.03
2017-04-21T07:14:51.520Z,43.27
2017-04-21T07:15:57.405Z,43.48
2017-04-21T07:16:57.957Z,43.80
2017-04-21T07:17:54.411Z,44.15
2017-04-21T07:19:02.409Z,44.42
2017-04-21T07:19:53.571Z,44.98
2017-04-21T07:21:02.797Z,44.71
2017-04-21T07:21:57.366Z,45.34
2017-04-21T07:22:48.975Z,45.40
2017-04-21T07:23:51.019Z,45.34
2017-04-21T07:24:50.661Z,45.84
2017-04-21T07:25:47.463Z,45.63
2017-04-21T07:26:55.503Z,46.85
2017-04-21T07:27:50.506Z,46.27
2017-04-21T07:28:45.863Z,46.25
2017-04-21T07:29:55.478Z,46.38
2017-04-21T07:31:51.543Z,45.35
2017-04-21T07:32:39.024Z,45.49
2017-04-21T07:33:44.728Z,45.72
2017-04-21T07:34:57.068Z,46.60
2017-04-21T07:36:17.947Z,46.70
2017-04-21T07:37:00.562Z,46.79
2017-04-21T07:38:01.281Z,47.08
2017-04-21T07:39:48.642Z,47.25
2017-04-21T07:40:56.580Z,47.08
2017-04-21T07:41:51.491Z,47.20
2017-04-21T07:42:57.799Z,47.21
2017-04-21T07:43:53.046Z,47.21
2017-04-21T07:44:43.903Z,47.32
2017-04-21T07:45:54.706Z,47.24
2017-04-21T07:47:06.155Z,47.24
2017-04-21T07:47:50.304Z,47.37
2017-04-21T07:48:50.917Z,47.52
2017-04-21T07:49:44.833Z,47.54
2017-04-21T07:50:41.263Z,47.49
2017-04-21T07:51:50.823Z,47.57
2017-04-21T07:52:56.499Z,47.52
2017-04-21T07:54:02.467Z,47.63
2017-04-21T07:55:01.782Z,47.62
2017-04-21T07:55:45.534Z,47.78
2017-04-21T07:56:44.791Z,47.75
2017-04-21T07:57:55.182Z,47.74
2017-04-21T07:58:51.709Z,47.77
2017-04-21T07:59:51.870Z,47.76
2017-04-21T08:02:08.046Z,47.94
2017-04-21T08:02:18.168Z,47.92
2017-04-21T08:03:01.989Z,47.75
2017-04-21T08:03:47.510Z,47.89
2017-04-21T08:04:51.552Z,47.93
2017-04-21T08:05:54.777Z,48.11
2017-04-21T08:06:55.632Z,49.01
2017-04-21T08:07:49.576Z,48.62
2017-04-21T08:08:50.686Z,48.02
2017-04-21T08:09:46.739Z,48.21
2017-04-21T08:10:40.631Z,48.85
2017-04-21T08:11:51.598Z,49.51
2017-04-21T08:12:46.475Z,49.91
2017-04-21T08:13:50.643Z,49.54
2017-04-21T08:14:46.788Z,49.93
2017-04-21T08:15:50.926Z,49.47
2017-04-21T08:16:53.684Z,49.49
2017-04-21T08:17:44.955Z,49.35
2017-04-21T08:18:48.963Z,49.12
2017-04-21T08:19:50.697Z,49.48
2017-04-21T08:20:51.482Z,49.15
2017-04-21T08:21:54.867Z,49.17
2017-04-21T08:22:46.060Z,49.05
2017-04-21T08:23:50.840Z,49.04
2017-04-21T08:24:54.344Z,48.93
2017-04-21T08:25:49.834Z,48.84
2017-04-21T08:26:51.136Z,48.78
2017-04-21T08:27:54.353Z,48.77
2017-04-21T08:28:48.840Z,48.61
2017-04-21T08:29:50.265Z,48.50
2017-04-21T08:30:54.899Z,48.47
2017-04-21T08:31:56.639Z,47.65
2017-04-21T08:32:46.577Z,48.12
2017-04-21T08:33:51.558Z,48.30
2017-04-21T08:34:56.659Z,48.10
2017-04-21T08:35:55.586Z,48.04
2017-04-21T08:36:56.417Z,48.00
2017-04-21T08:37:54.747Z,47.95
2017-04-21T08:38:50.901Z,47.98
2017-04-21T08:39:43.780Z,47.95
2017-04-21T08:40:50.937Z,47.86
2017-04-21T08:41:56.238Z,47.78
2017-04-21T08:42:50.171Z,47.72
2017-04-21T08:43:56.458Z,47.65
2017-04-21T08:45:00.017Z,47.57
2017-04-21T08:45:46.585Z,47.46
2017-04-21T08:46:53.128Z,47.69
2017-04-21T08:47:50.192Z,47.72
2017-04-21T08:48:54.995Z,47.63
2017-04-21T08:49:55.705Z,47.35
2017-04-21T08:50:45.578Z,47.13
2017-04-21T08:51:59.231Z,47.10
2017-04-21T08:52:44.364Z,47.11
2017-04-21T08:53:51.288Z,47.16
2017-04-21T08:55:16.605Z,47.08
2017-04-21T08:55:50.465Z,47.11
2017-04-21T08:56:51.370Z,47.04
2017-04-21T08:58:01.792Z,46.99
2017-04-21T08:58:55.956Z,47.03
2017-04-21T09:00:15.752Z,47.10
2017-04-21T09:00:55.147Z,46.98
2017-04-21T09:01:51.158Z,46.94
2017-04-21T09:02:49.391Z,46.78
2017-04-21T09:03:45.924Z,46.86
2017-04-21T09:04:45.250Z,46.69
2017-04-21T09:05:55.622Z,46.62
2017-04-21T09:06:55.782Z,46.57
2017-04-21T09:08:04.384Z,46.57
2017-04-21T09:09:03.375Z,46.68
2017-04-21T09:09:47.378Z,46.60
2017-04-21T09:10:44.293Z,46.47
2017-04-21T09:11:44.415Z,46.42
2017-04-21T09:12:44.270Z,46.50
2017-04-21T09:13:59.289Z,46.50
2017-04-21T09:15:00.750Z,46.49
2017-04-21T09:15:54.637Z,46.48
2017-04-21T09:16:55.837Z,46.49
2017-04-21T09:17:54.349Z,46.48
2017-04-21T09:18:50.357Z,46.47
2017-04-21T09:19:56.268Z,46.54
2017-04-21T09:20:51.061Z,46.40
2017-04-21T09:21:53.677Z,46.56
2017-04-21T09:22:46.270Z,46.56
2017-04-21T09:23:53.768Z,46.50
2017-04-21T09:24:50.613Z,46.57
2017-04-21T09:25:46.147Z,46.51
2017-04-21T09:26:55.652Z,46.54
2017-04-21T09:27:50.812Z,46.58
2017-04-21T09:28:51.759Z,46.52
2017-04-21T09:30:00.297Z,46.59
2017-04-21T09:32:49.806Z,46.57
2017-04-21T09:33:15.563Z,46.58
2017-04-21T09:35:09.754Z,46.48
2017-04-21T09:36:23.993Z,46.63
2017-04-21T09:36:29.916Z,46.54
2017-04-21T09:36:45.509Z,46.60
2017-04-21T09:36:56.384Z,46.59
2017-04-21T09:37:50.524Z,46.67
2017-04-21T09:38:56.995Z,46.63
2017-04-21T09:39:50.758Z,46.61
2017-04-21T09:40:58.645Z,46.58
2017-04-21T09:41:50.896Z,46.67
2017-04-21T09:44:00.910Z,46.61
2017-04-21T09:44:47.083Z,46.69
2017-04-21T09:45:04.294Z,46.67
2017-04-21T09:45:58.623Z,46.72
2017-04-21T09:46:55.061Z,46.74
2017-04-21T09:47:49.739Z,46.73
2017-04-21T09:48:44.942Z,46.76
2017-04-21T09:49:49.924Z,46.73
2017-04-21T09:55:55.733Z,46.72
2017-04-21T10:00:08.243Z,46.75
2017-04-21T10:02:57.200Z,46.74
2017-04-21T10:03:48.584Z,46.83
2017-04-21T10:04:40.557Z,46.81
2017-04-21T10:05:49.005Z,46.81
2017-04-21T10:06:25.337Z,46.84
2017-04-21T10:07:53.021Z,46.85
2017-04-21T10:08:17.156Z,46.86
2017-04-21T10:08:43.409Z,46.90
2017-04-21T10:08:43.429Z,46.84
2017-04-21T10:08:54.047Z,46.86
2017-04-21T10:09:04.387Z,46.91
2017-04-21T10:09:04.388Z,46.86
2017-04-21T10:09:04.393Z,46.84
2017-04-21T10:09:04.402Z,46.90
2017-04-21T10:09:08.253Z,46.88
2017-04-21T10:09:24.397Z,46.92
2017-04-21T10:09:24.404Z,46.91
2017-04-21T10:09:58.751Z,46.90
2017-04-21T10:10:48.900Z,46.89
2017-04-21T10:11:50.447Z,46.93
2017-04-21T10:12:45.997Z,46.92
2017-04-21T10:13:49.668Z,46.93
2017-04-21T10:14:38.951Z,46.96
2017-04-21T10:15:54.446Z,46.98
2017-04-21T10:16:45.826Z,47.00
2017-04-21T10:17:39.747Z,47.02
2017-04-21T10:18:51.279Z,47.01
2017-04-21T10:19:58.014Z,47.03
2017-04-21T10:20:45.945Z,47.05
2017-04-21T10:21:45.737Z,47.03
2017-04-21T10:22:50.666Z,47.05
2017-04-21T10:23:55.241Z,47.05
2017-04-21T10:25:02.468Z,47.03
2017-04-21T10:25:50.523Z,47.06
2017-04-21T10:26:47.467Z,46.25
2017-04-21T10:27:45.130Z,46.46
2017-04-21T10:28:58.297Z,46.86
2017-04-21T10:29:54.329Z,46.98
2017-04-21T10:30:50.915Z,47.03
2017-04-21T10:31:44.195Z,47.06
2017-04-21T10:33:02.907Z,47.08
2017-04-21T10:33:58.049Z,47.10
2017-04-21T10:34:49.012Z,47.08
2017-04-21T10:35:46.408Z,47.11
2017-04-21T10:36:51.537Z,47.10
2017-04-21T10:37:54.114Z,47.11
2017-04-21T10:38:48.784Z,47.11
2017-04-21T10:39:51.935Z,47.12
2017-04-21T10:40:45.588Z,47.10
2017-04-21T10:41:51.841Z,47.12
2017-04-21T10:42:59.904Z,47.14
2017-04-21T10:43:49.228Z,47.12
2017-04-21T10:45:16.272Z,47.11
2017-04-21T10:45:54.424Z,47.15
2017-04-21T10:47:00.450Z,47.13
2017-04-21T10:47:55.209Z,47.16
2017-04-21T10:48:44.163Z,47.13
2017-04-21T10:49:58.707Z,47.12
2017-04-21T10:50:49.214Z,47.15
2017-04-21T10:51:49.981Z,47.16
2017-04-21T10:52:54.462Z,47.16
2017-04-21T10:53:50.781Z,47.16
2017-04-21T10:54:50.075Z,47.17
2017-04-21T10:55:50.094Z,47.20
2017-04-21T10:56:50.086Z,47.19
2017-04-21T10:57:55.668Z,47.18
2017-04-21T10:58:55.673Z,47.21
2017-04-21T10:59:49.548Z,47.22
2017-04-21T11:01:00.570Z,47.24
2017-04-21T11:01:50.048Z,47.27
2017-04-21T11:02:57.108Z,47.26
2017-04-21T11:03:57.440Z,47.29
2017-04-21T11:04:56.289Z,47.29
2017-04-21T11:05:51.150Z,47.29
2017-04-21T11:06:46.077Z,47.30
2017-04-21T11:07:50.945Z,47.30
2017-04-21T11:08:59.742Z,47.30
2017-04-21T11:10:00.143Z,47.31
2017-04-21T11:10:45.058Z,47.33
2017-04-21T11:11:43.469Z,47.33
2017-04-21T11:12:44.796Z,47.35
2017-04-21T11:13:45.714Z,47.34
2017-04-21T11:14:50.928Z,47.35
2017-04-21T11:15:55.529Z,47.38
2017-04-21T11:16:56.171Z,47.37
2017-04-21T11:17:55.638Z,47.37
2017-04-21T11:19:04.593Z,47.37
2017-04-21T11:19:49.971Z,47.36
2017-04-21T11:20:56.006Z,47.37
2017-04-21T11:21:44.921Z,47.38
2017-04-21T11:22:45.936Z,47.38
2017-04-21T11:23:44.107Z,47.39
2017-04-21T11:24:55.071Z,47.38
2017-04-21T11:26:00.120Z,47.39
2017-04-21T11:26:45.971Z,47.39
2017-04-21T11:28:00.281Z,47.40
2017-04-21T11:28:54.443Z,47.40
2017-04-21T11:29:51.258Z,47.40
2017-04-21T11:30:46.365Z,47.41
2017-04-21T11:31:55.612Z,47.40
2017-04-21T11:33:04.100Z,47.41
2017-04-21T11:33:59.089Z,47.41
2017-04-21T11:34:48.683Z,47.41
2017-04-21T11:35:44.952Z,47.42
2017-04-21T11:36:50.323Z,46.64
2017-04-21T11:37:46.412Z,46.52
2017-04-21T11:38:50.239Z,47.15
2017-04-21T11:39:51.998Z,47.29
2017-04-21T11:40:56.361Z,47.36
2017-04-21T11:41:47.452Z,47.38
2017-04-21T11:42:55.355Z,47.39
2017-04-21T11:43:44.532Z,47.41
2017-04-21T11:44:58.878Z,47.41
2017-04-21T11:45:53.156Z,47.43
2017-04-21T11:46:59.364Z,47.43
2017-04-21T11:47:50.498Z,47.44
2017-04-21T11:48:50.901Z,47.43
2017-04-21T11:49:55.346Z,47.44
2017-04-21T11:50:55.550Z,47.45
2017-04-21T11:51:46.426Z,47.45
2017-04-21T11:52:50.962Z,47.45
2017-04-21T11:53:46.086Z,47.46
2017-04-21T11:54:48.634Z,47.48
2017-04-21T11:55:54.948Z,47.46
2017-04-21T11:56:58.591Z,47.48
2017-04-21T11:57:49.794Z,47.48
2017-04-21T11:58:51.178Z,47.48
2017-04-21T11:59:50.090Z,47.49
2017-04-21T12:00:57.520Z,47.51
2017-04-21T12:02:04.033Z,47.52
2017-04-21T12:02:54.279Z,47.53
2017-04-21T12:04:09.340Z,47.55
2017-04-21T12:05:03.841Z,47.56
2017-04-21T12:05:54.222Z,47.56
2017-04-21T12:07:06.382Z,47.58
2017-04-21T12:07:55.614Z,47.60
2017-04-21T12:08:46.155Z,47.60
2017-04-21T12:09:57.123Z,47.61
2017-04-21T12:10:50.279Z,47.61
2017-04-21T12:11:46.499Z,47.61
2017-04-21T12:12:46.443Z,47.61
2017-04-21T12:13:50.993Z,47.61
2017-04-21T12:15:00.335Z,47.61
2017-04-21T12:15:51.958Z,47.60
2017-04-21T12:16:43.034Z,47.61
2017-04-21T12:17:38.711Z,47.59
2017-04-21T12:18:50.346Z,47.60
2017-04-21T12:19:39.755Z,47.58
2017-04-21T12:20:51.369Z,47.59
2017-04-21T12:21:49.757Z,47.57
2017-04-21T12:22:50.457Z,47.55
2017-04-21T12:23:56.270Z,47.55
2017-04-21T12:25:00.452Z,47.54
2017-04-21T12:26:00.703Z,47.52
2017-04-21T12:26:50.354Z,47.50
2017-04-21T12:27:45.567Z,47.50
2017-04-21T12:29:04.953Z,47.49
2017-04-21T12:29:44.434Z,47.48
2017-04-21T12:30:54.888Z,47.49
2017-04-21T12:31:50.698Z,47.50
2017-04-21T12:32:51.761Z,47.54
2017-04-21T12:33:51.714Z,47.55
2017-04-21T12:34:49.217Z,47.56
2017-04-21T12:35:50.636Z,47.56
2017-04-21T12:36:51.493Z,47.59
2017-04-21T12:37:58.826Z,47.60
2017-04-21T12:38:58.257Z,47.61
2017-04-21T12:39:48.624Z,47.62
2017-04-21T12:40:55.594Z,47.64
2017-04-21T12:41:54.766Z,47.65
2017-04-21T12:43:09.233Z,47.66
2017-04-21T12:43:59.332Z,47.68
2017-04-21T12:44:59.437Z,47.68
2017-04-21T12:45:50.523Z,47.69
2017-04-21T12:46:58.985Z,47.71
2017-04-21T12:48:03.504Z,47.71
2017-04-21T12:48:54.937Z,47.71
2017-04-21T12:49:45.161Z,46.97
2017-04-21T12:50:54.610Z,46.84
2017-04-21T12:51:44.586Z,46.77
2017-04-21T12:52:49.657Z,46.74
2017-04-21T12:53:45.573Z,46.72
2017-04-21T12:54:51.451Z,46.70
2017-04-21T12:55:50.953Z,47.00
2017-04-21T12:57:01.032Z,47.44